Pico Rivera, California
Current Conditions -  °F | °C
As of 2:53 PM on Saturday 25 Oct 2014 (Local Time) from KFUL Reporting Station
Few Clouds Few Clouds  
Wind Chill: 82°   Ceiling: Unl
Heat Index: 82°   Visibility: 10mi
Dew Point: 54°   Wind: 9mph
Humidity: 38%   Direction: 220°SW
Pressure: 29.99"   Gusts: NA
Location:  33.98°N, 118.08°W
Report Text: KFUL 252153Z 22008KT 10SM FEW100 28/12 A2999 RMK AO2 SLP155 T02780122 $
Loading
Personal Weather Stations






























Interactive Weather Map New forecast layout! Learn more

10-Day Weather Forecast

Advertisements
Track Severe Weather on mobile